sensor_id;sensor_type;location;lat;lon;timestamp;temperature;humidity
19200;DHT22;9732;52.498;5.408;2023-09-18T00:00:44;18.50;99.90
19200;DHT22;9732;52.498;5.408;2023-09-18T00:03:11;18.60;99.90
19200;DHT22;9732;52.498;5.408;2023-09-18T00:05:38;18.60;99.90
19200;DHT22;9732;52.498;5.408;2023-09-18T00:08:06;18.60;99.90
19200;DHT22;9732;52.498;5.408;2023-09-18T00:10:34;18.70;99.90
19200;DHT22;9732;52.498;5.408;2023-09-18T00:13:01;18.70;99.90
19200;DHT22;9732;52.498;5.408;2023-09-18T00:15:29;18.70;99.90
19200;DHT22;9732;52.498;5.408;2023-09-18T00:17:57;18.70;99.90
19200;DHT22;9732;52.498;5.408;2023-09-18T00:20:24;18.60;99.90
19200;DHT22;9732;52.498;5.408;2023-09-18T00:22:54;18.60;99.90
19200;DHT22;9732;52.498;5.408;2023-09-18T00:25:22;18.60;99.90
19200;DHT22;9732;52.498;5.408;2023-09-18T00:27:49;18.60;99.90
19200;DHT22;9732;52.498;5.408;2023-09-18T00:30:18;18.60;99.90
19200;DHT22;9732;52.498;5.408;2023-09-18T00:32:47;18.60;99.90
19200;DHT22;9732;52.498;5.408;2023-09-18T00:35:15;18.60;99.90
19200;DHT22;9732;52.498;5.408;2023-09-18T00:37:42;18.60;99.90
19200;DHT22;9732;52.498;5.408;2023-09-18T00:40:10;18.70;99.90
19200;DHT22;9732;52.498;5.408;2023-09-18T00:42:40;18.70;99.90
19200;DHT22;9732;52.498;5.408;2023-09-18T00:45:07;18.70;99.90
19200;DHT22;9732;52.498;5.408;2023-09-18T00:47:35;18.60;99.90
19200;DHT22;9732;52.498;5.408;2023-09-18T00:50:03;18.60;99.90
19200;DHT22;9732;52.498;5.408;2023-09-18T00:52:32;18.60;99.90
19200;DHT22;9732;52.498;5.408;2023-09-18T00:55:00;18.70;99.90
19200;DHT22;9732;52.498;5.408;2023-09-18T00:57:28;18.70;99.90
19200;DHT22;9732;52.498;5.408;2023-09-18T00:59:57;18.60;99.90
19200;DHT22;9732;52.498;5.408;2023-09-18T01:02:24;18.60;99.90
19200;DHT22;9732;52.498;5.408;2023-09-18T01:04:52;18.60;99.90
19200;DHT22;9732;52.498;5.408;2023-09-18T01:07:19;18.60;99.90
19200;DHT22;9732;52.498;5.408;2023-09-18T01:09:45;18.70;99.90
19200;DHT22;9732;52.498;5.408;2023-09-18T01:12:18;18.60;99.90
19200;DHT22;9732;52.498;5.408;2023-09-18T01:14:55;18.80;99.90
19200;DHT22;9732;52.498;5.408;2023-09-18T01:17:26;18.70;99.90
19200;DHT22;9732;52.498;5.408;2023-09-18T01:19:53;18.70;99.90
19200;DHT22;9732;52.498;5.408;2023-09-18T01:22:21;18.70;99.90
19200;DHT22;9732;52.498;5.408;2023-09-18T01:24:49;18.70;99.90
19200;DHT22;9732;52.498;5.408;2023-09-18T01:27:18;18.70;99.90
19200;DHT22;9732;52.498;5.408;2023-09-18T01:29:45;18.70;99.90
19200;DHT22;9732;52.498;5.408;2023-09-18T01:32:12;18.70;99.90
19200;DHT22;9732;52.498;5.408;2023-09-18T01:34:43;18.70;99.90
19200;DHT22;9732;52.498;5.408;2023-09-18T01:37:12;18.70;99.90
19200;DHT22;9732;52.498;5.408;2023-09-18T01:39:39;18.70;99.90
19200;DHT22;9732;52.498;5.408;2023-09-18T01:42:07;18.70;99.90
19200;DHT22;9732;52.498;5.408;2023-09-18T01:44:36;18.80;99.90
19200;DHT22;9732;52.498;5.408;2023-09-18T01:47:06;18.80;99.90
19200;DHT22;9732;52.498;5.408;2023-09-18T01:49:36;18.80;99.90
19200;DHT22;9732;52.498;5.408;2023-09-18T01:52:04;18.80;99.90
19200;DHT22;9732;52.498;5.408;2023-09-18T01:54:38;18.80;99.90
19200;DHT22;9732;52.498;5.408;2023-09-18T01:57:07;18.80;99.90
19200;DHT22;9732;52.498;5.408;2023-09-18T01:59:34;18.80;99.90
19200;DHT22;9732;52.498;5.408;2023-09-18T02:02:02;18.80;99.90
19200;DHT22;9732;52.498;5.408;2023-09-18T02:04:32;18.80;99.90
19200;DHT22;9732;52.498;5.408;2023-09-18T02:07:00;18.80;99.90
19200;DHT22;9732;52.498;5.408;2023-09-18T02:09:27;18.80;99.90
19200;DHT22;9732;52.498;5.408;2023-09-18T02:11:54;18.80;99.90
19200;DHT22;9732;52.498;5.408;2023-09-18T02:14:24;18.80;99.90
19200;DHT22;9732;52.498;5.408;2023-09-18T02:16:51;18.80;99.90
19200;DHT22;9732;52.498;5.408;2023-09-18T02:19:19;18.80;99.90
19200;DHT22;9732;52.498;5.408;2023-09-18T02:21:47;18.80;99.90
19200;DHT22;9732;52.498;5.408;2023-09-18T02:24:14;18.80;99.90
19200;DHT22;9732;52.498;5.408;2023-09-18T02:26:41;18.80;99.90
19200;DHT22;9732;52.498;5.408;2023-09-18T02:29:09;18.80;99.90
19200;DHT22;9732;52.498;5.408;2023-09-18T02:31:38;18.80;99.90
19200;DHT22;9732;52.498;5.408;2023-09-18T02:34:07;18.80;99.90
19200;DHT22;9732;52.498;5.408;2023-09-18T02:36:34;18.80;99.90
19200;DHT22;9732;52.498;5.408;2023-09-18T02:39:02;18.80;99.90
19200;DHT22;9732;52.498;5.408;2023-09-18T02:41:29;18.80;99.90
19200;DHT22;9732;52.498;5.408;2023-09-18T02:44:00;18.80;99.90
19200;DHT22;9732;52.498;5.408;2023-09-18T02:46:27;18.80;99.90
19200;DHT22;9732;52.498;5.408;2023-09-18T02:48:56;18.80;99.90
19200;DHT22;9732;52.498;5.408;2023-09-18T02:51:23;18.80;99.90
19200;DHT22;9732;52.498;5.408;2023-09-18T02:53:50;18.80;99.90
19200;DHT22;9732;52.498;5.408;2023-09-18T02:56:18;18.80;99.90
19200;DHT22;9732;52.498;5.408;2023-09-18T02:58:46;18.80;99.90
19200;DHT22;9732;52.498;5.408;2023-09-18T03:01:14;18.80;99.90
19200;DHT22;9732;52.498;5.408;2023-09-18T03:03:43;18.80;99.90
19200;DHT22;9732;52.498;5.408;2023-09-18T03:06:12;18.80;99.90
19200;DHT22;9732;52.498;5.408;2023-09-18T03:08:39;18.80;99.90
19200;DHT22;9732;52.498;5.408;2023-09-18T03:11:11;18.80;99.90
19200;DHT22;9732;52.498;5.408;2023-09-18T03:13:43;18.80;99.90
19200;DHT22;9732;52.498;5.408;2023-09-18T03:16:12;18.80;99.90
19200;DHT22;9732;52.498;5.408;2023-09-18T03:18:39;18.70;99.90
19200;DHT22;9732;52.498;5.408;2023-09-18T03:21:07;18.80;99.90
19200;DHT22;9732;52.498;5.408;2023-09-18T03:23:41;18.80;99.90
19200;DHT22;9732;52.498;5.408;2023-09-18T03:26:09;18.80;99.90
19200;DHT22;9732;52.498;5.408;2023-09-18T03:28:42;18.80;99.90
19200;DHT22;9732;52.498;5.408;2023-09-18T03:31:09;18.90;99.90
19200;DHT22;9732;52.498;5.408;2023-09-18T03:33:36;18.90;99.90
19200;DHT22;9732;52.498;5.408;2023-09-18T03:36:03;18.80;99.90
19200;DHT22;9732;52.498;5.408;2023-09-18T03:38:31;18.80;99.90
19200;DHT22;9732;52.498;5.408;2023-09-18T03:41:01;18.80;99.90
19200;DHT22;9732;52.498;5.408;2023-09-18T03:43:28;18.80;99.90
19200;DHT22;9732;52.498;5.408;2023-09-18T03:45:55;18.80;99.90
19200;DHT22;9732;52.498;5.408;2023-09-18T03:48:22;18.80;99.90
19200;DHT22;9732;52.498;5.408;2023-09-18T03:50:49;18.80;99.90
19200;DHT22;9732;52.498;5.408;2023-09-18T03:53:19;18.80;99.90
19200;DHT22;9732;52.498;5.408;2023-09-18T03:55:48;18.70;99.90
19200;DHT22;9732;52.498;5.408;2023-09-18T03:58:16;18.80;99.90
19200;DHT22;9732;52.498;5.408;2023-09-18T04:00:43;18.80;99.90
19200;DHT22;9732;52.498;5.408;2023-09-18T04:03:12;18.80;99.90
19200;DHT22;9732;52.498;5.408;2023-09-18T04:05:39;18.80;99.90
19200;DHT22;9732;52.498;5.408;2023-09-18T04:08:07;18.90;99.90
19200;DHT22;9732;52.498;5.408;2023-09-18T04:10:35;19.00;99.90
19200;DHT22;9732;52.498;5.408;2023-09-18T04:13:02;19.00;99.90
19200;DHT22;9732;52.498;5.408;2023-09-18T04:15:30;19.10;99.90
19200;DHT22;9732;52.498;5.408;2023-09-18T04:17:58;19.10;99.90
19200;DHT22;9732;52.498;5.408;2023-09-18T04:20:25;19.20;99.90
19200;DHT22;9732;52.498;5.408;2023-09-18T04:23:17;19.20;99.90
19200;DHT22;9732;52.498;5.408;2023-09-18T04:25:44;19.20;99.90
19200;DHT22;9732;52.498;5.408;2023-09-18T04:28:13;19.20;99.90
19200;DHT22;9732;52.498;5.408;2023-09-18T04:30:41;19.30;99.90
19200;DHT22;9732;52.498;5.408;2023-09-18T04:33:08;19.20;99.90
19200;DHT22;9732;52.498;5.408;2023-09-18T04:35:35;19.30;99.90
19200;DHT22;9732;52.498;5.408;2023-09-18T04:38:03;19.30;99.90
19200;DHT22;9732;52.498;5.408;2023-09-18T04:40:30;19.40;99.90
19200;DHT22;9732;52.498;5.408;2023-09-18T04:42:58;19.40;99.90
19200;DHT22;9732;52.498;5.408;2023-09-18T04:45:25;19.40;99.90
19200;DHT22;9732;52.498;5.408;2023-09-18T04:47:54;19.40;99.90
19200;DHT22;9732;52.498;5.408;2023-09-18T04:50:22;19.40;99.90
19200;DHT22;9732;52.498;5.408;2023-09-18T04:52:49;19.40;99.90
19200;DHT22;9732;52.498;5.408;2023-09-18T04:55:18;19.50;99.90
19200;DHT22;9732;52.498;5.408;2023-09-18T04:57:45;19.50;99.90
19200;DHT22;9732;52.498;5.408;2023-09-18T05:00:13;19.50;99.90
19200;DHT22;9732;52.498;5.408;2023-09-18T05:02:41;19.40;99.90
19200;DHT22;9732;52.498;5.408;2023-09-18T05:05:10;19.40;99.90
19200;DHT22;9732;52.498;5.408;2023-09-18T05:07:39;19.40;99.90
19200;DHT22;9732;52.498;5.408;2023-09-18T05:10:07;19.40;99.90
19200;DHT22;9732;52.498;5.408;2023-09-18T05:12:37;19.40;99.90
19200;DHT22;9732;52.498;5.408;2023-09-18T05:15:08;19.40;99.90
19200;DHT22;9732;52.498;5.408;2023-09-18T05:17:43;19.40;99.90
19200;DHT22;9732;52.498;5.408;2023-09-18T05:20:15;19.30;99.90
19200;DHT22;9732;52.498;5.408;2023-09-18T05:22:42;19.30;99.90
19200;DHT22;9732;52.498;5.408;2023-09-18T05:25:10;19.20;99.90
19200;DHT22;9732;52.498;5.408;2023-09-18T05:27:39;19.30;99.90
19200;DHT22;9732;52.498;5.408;2023-09-18T05:30:12;19.20;99.90
19200;DHT22;9732;52.498;5.408;2023-09-18T05:32:41;19.20;99.90
19200;DHT22;9732;52.498;5.408;2023-09-18T05:35:10;19.20;99.90
19200;DHT22;9732;52.498;5.408;2023-09-18T05:37:40;19.20;99.90
19200;DHT22;9732;52.498;5.408;2023-09-18T05:40:09;19.10;99.90
19200;DHT22;9732;52.498;5.408;2023-09-18T05:42:37;19.10;99.90
19200;DHT22;9732;52.498;5.408;2023-09-18T05:45:04;19.10;99.90
19200;DHT22;9732;52.498;5.408;2023-09-18T05:47:32;19.00;99.90
19200;DHT22;9732;52.498;5.408;2023-09-18T05:50:01;19.00;99.90
19200;DHT22;9732;52.498;5.408;2023-09-18T05:52:30;19.00;99.90
19200;DHT22;9732;52.498;5.408;2023-09-18T05:54:58;19.00;99.90
19200;DHT22;9732;52.498;5.408;2023-09-18T05:57:25;19.00;99.90
19200;DHT22;9732;52.498;5.408;2023-09-18T05:59:53;19.00;99.90
19200;DHT22;9732;52.498;5.408;2023-09-18T06:02:21;19.00;99.90
19200;DHT22;9732;52.498;5.408;2023-09-18T06:04:48;19.00;99.90
19200;DHT22;9732;52.498;5.408;2023-09-18T06:07:15;19.00;99.90
19200;DHT22;9732;52.498;5.408;2023-09-18T06:09:43;19.00;99.90
19200;DHT22;9732;52.498;5.408;2023-09-18T06:12:11;19.10;99.90
19200;DHT22;9732;52.498;5.408;2023-09-18T06:14:39;19.10;99.90
19200;DHT22;9732;52.498;5.408;2023-09-18T06:17:07;19.00;99.90
19200;DHT22;9732;52.498;5.408;2023-09-18T06:19:37;19.10;99.90
19200;DHT22;9732;52.498;5.408;2023-09-18T06:22:05;19.10;99.90
19200;DHT22;9732;52.498;5.408;2023-09-18T06:24:33;19.00;99.90
19200;DHT22;9732;52.498;5.408;2023-09-18T06:27:00;19.10;99.90
19200;DHT22;9732;52.498;5.408;2023-09-18T06:29:29;19.00;99.90
19200;DHT22;9732;52.498;5.408;2023-09-18T06:31:57;19.10;99.90
19200;DHT22;9732;52.498;5.408;2023-09-18T06:34:25;19.10;99.90
19200;DHT22;9732;52.498;5.408;2023-09-18T06:36:51;19.10;99.90
19200;DHT22;9732;52.498;5.408;2023-09-18T06:39:19;19.10;99.90
19200;DHT22;9732;52.498;5.408;2023-09-18T06:41:49;19.10;99.90
19200;DHT22;9732;52.498;5.408;2023-09-18T06:44:17;19.10;99.90
19200;DHT22;9732;52.498;5.408;2023-09-18T06:46:46;19.10;99.90
19200;DHT22;9732;52.498;5.408;2023-09-18T06:49:13;19.10;99.90
19200;DHT22;9732;52.498;5.408;2023-09-18T06:51:40;19.10;99.90
19200;DHT22;9732;52.498;5.408;2023-09-18T06:54:07;19.10;99.90
19200;DHT22;9732;52.498;5.408;2023-09-18T06:56:35;19.10;99.90
19200;DHT22;9732;52.498;5.408;2023-09-18T06:59:03;19.00;99.90
19200;DHT22;9732;52.498;5.408;2023-09-18T07:01:30;19.10;99.90
19200;DHT22;9732;52.498;5.408;2023-09-18T07:03:59;19.10;99.90
19200;DHT22;9732;52.498;5.408;2023-09-18T07:06:26;19.10;99.90
19200;DHT22;9732;52.498;5.408;2023-09-18T07:08:53;19.20;99.90
19200;DHT22;9732;52.498;5.408;2023-09-18T07:11:22;19.10;99.90
19200;DHT22;9732;52.498;5.408;2023-09-18T07:13:55;19.20;99.90
19200;DHT22;9732;52.498;5.408;2023-09-18T07:16:22;19.20;99.90
19200;DHT22;9732;52.498;5.408;2023-09-18T07:18:48;19.20;99.90
19200;DHT22;9732;52.498;5.408;2023-09-18T07:21:19;19.20;99.90
19200;DHT22;9732;52.498;5.408;2023-09-18T07:23:46;19.20;99.90
19200;DHT22;9732;52.498;5.408;2023-09-18T07:26:14;19.20;99.90
19200;DHT22;9732;52.498;5.408;2023-09-18T07:28:40;19.30;99.90
19200;DHT22;9732;52.498;5.408;2023-09-18T07:31:11;19.30;99.90
19200;DHT22;9732;52.498;5.408;2023-09-18T07:33:42;19.40;99.90
19200;DHT22;9732;52.498;5.408;2023-09-18T07:36:09;19.40;99.90
19200;DHT22;9732;52.498;5.408;2023-09-18T07:38:38;19.60;99.90
19200;DHT22;9732;52.498;5.408;2023-09-18T07:41:04;19.50;99.90
19200;DHT22;9732;52.498;5.408;2023-09-18T07:43:32;19.50;99.90
19200;DHT22;9732;52.498;5.408;2023-09-18T07:45:59;19.60;99.90
19200;DHT22;9732;52.498;5.408;2023-09-18T07:48:27;19.60;99.90
19200;DHT22;9732;52.498;5.408;2023-09-18T07:50:54;19.70;99.90
19200;DHT22;9732;52.498;5.408;2023-09-18T07:53:21;19.70;99.90
19200;DHT22;9732;52.498;5.408;2023-09-18T07:55:55;19.70;99.90
19200;DHT22;9732;52.498;5.408;2023-09-18T07:58:22;19.80;99.90
19200;DHT22;9732;52.498;5.408;2023-09-18T08:00:54;19.80;99.90
19200;DHT22;9732;52.498;5.408;2023-09-18T08:03:23;19.80;99.90
19200;DHT22;9732;52.498;5.408;2023-09-18T08:05:52;19.80;99.90
19200;DHT22;9732;52.498;5.408;2023-09-18T08:08:22;19.90;99.90
19200;DHT22;9732;52.498;5.408;2023-09-18T08:10:52;19.90;99.90
19200;DHT22;9732;52.498;5.408;2023-09-18T08:13:20;20.00;99.90
19200;DHT22;9732;52.498;5.408;2023-09-18T08:15:54;20.00;99.90
19200;DHT22;9732;52.498;5.408;2023-09-18T08:18:43;20.10;99.90
19200;DHT22;9732;52.498;5.408;2023-09-18T08:21:11;20.00;99.90
19200;DHT22;9732;52.498;5.408;2023-09-18T08:23:42;20.10;99.90
19200;DHT22;9732;52.498;5.408;2023-09-18T08:26:12;20.10;99.90
19200;DHT22;9732;52.498;5.408;2023-09-18T08:28:40;20.10;99.90
19200;DHT22;9732;52.498;5.408;2023-09-18T08:31:10;20.10;99.90
19200;DHT22;9732;52.498;5.408;2023-09-18T08:33:38;20.00;99.90
19200;DHT22;9732;52.498;5.408;2023-09-18T08:36:05;20.20;99.90
19200;DHT22;9732;52.498;5.408;2023-09-18T08:38:32;20.10;99.90
19200;DHT22;9732;52.498;5.408;2023-09-18T08:41:01;20.10;99.90
19200;DHT22;9732;52.498;5.408;2023-09-18T08:43:31;20.10;99.90
19200;DHT22;9732;52.498;5.408;2023-09-18T08:45:59;20.20;99.90
19200;DHT22;9732;52.498;5.408;2023-09-18T08:48:29;20.20;99.90
19200;DHT22;9732;52.498;5.408;2023-09-18T08:51:02;20.20;99.90
19200;DHT22;9732;52.498;5.408;2023-09-18T08:53:31;20.20;99.90
19200;DHT22;9732;52.498;5.408;2023-09-18T08:55:59;20.20;99.90
19200;DHT22;9732;52.498;5.408;2023-09-18T08:58:32;20.20;99.90
19200;DHT22;9732;52.498;5.408;2023-09-18T09:00:59;20.20;99.90
19200;DHT22;9732;52.498;5.408;2023-09-18T09:03:30;20.20;99.90
19200;DHT22;9732;52.498;5.408;2023-09-18T09:05:57;20.20;99.90
19200;DHT22;9732;52.498;5.408;2023-09-18T09:08:27;20.20;99.90
19200;DHT22;9732;52.498;5.408;2023-09-18T09:10:54;20.20;99.90
19200;DHT22;9732;52.498;5.408;2023-09-18T09:13:23;20.30;99.90
19200;DHT22;9732;52.498;5.408;2023-09-18T09:15:54;20.40;99.90
19200;DHT22;9732;52.498;5.408;2023-09-18T09:18:23;20.70;99.90
19200;DHT22;9732;52.498;5.408;2023-09-18T09:20:54;20.60;99.90
19200;DHT22;9732;52.498;5.408;2023-09-18T09:23:25;20.60;99.90
19200;DHT22;9732;52.498;5.408;2023-09-18T09:25:52;20.70;99.90
19200;DHT22;9732;52.498;5.408;2023-09-18T09:28:30;20.80;99.90
19200;DHT22;9732;52.498;5.408;2023-09-18T09:31:02;21.00;99.90
19200;DHT22;9732;52.498;5.408;2023-09-18T09:33:29;21.00;99.90
19200;DHT22;9732;52.498;5.408;2023-09-18T09:35:57;20.90;99.90
19200;DHT22;9732;52.498;5.408;2023-09-18T09:38:29;20.80;99.90
19200;DHT22;9732;52.498;5.408;2023-09-18T09:41:00;20.70;99.90
19200;DHT22;9732;52.498;5.408;2023-09-18T09:43:30;20.60;99.90
19200;DHT22;9732;52.498;5.408;2023-09-18T09:45:58;20.50;99.90
19200;DHT22;9732;52.498;5.408;2023-09-18T09:48:27;20.40;99.90
19200;DHT22;9732;52.498;5.408;2023-09-18T09:50:58;20.40;99.90
19200;DHT22;9732;52.498;5.408;2023-09-18T09:53:45;20.40;99.90
19200;DHT22;9732;52.498;5.408;2023-09-18T09:56:15;20.30;99.90
19200;DHT22;9732;52.498;5.408;2023-09-18T09:59:00;20.30;99.90
19200;DHT22;9732;52.498;5.408;2023-09-18T10:01:28;20.30;99.90
19200;DHT22;9732;52.498;5.408;2023-09-18T10:04:03;20.20;99.90
19200;DHT22;9732;52.498;5.408;2023-09-18T10:06:34;20.30;99.90
19200;DHT22;9732;52.498;5.408;2023-09-18T10:09:02;20.40;99.90
19200;DHT22;9732;52.498;5.408;2023-09-18T10:11:30;20.30;99.90
19200;DHT22;9732;52.498;5.408;2023-09-18T10:14:00;20.40;99.90
19200;DHT22;9732;52.498;5.408;2023-09-18T10:16:31;20.50;99.90
19200;DHT22;9732;52.498;5.408;2023-09-18T10:19:06;20.60;99.90
19200;DHT22;9732;52.498;5.408;2023-09-18T10:21:38;20.70;99.90
19200;DHT22;9732;52.498;5.408;2023-09-18T10:24:13;20.90;99.90
19200;DHT22;9732;52.498;5.408;2023-09-18T10:26:50;21.30;99.90
19200;DHT22;9732;52.498;5.408;2023-09-18T10:29:18;21.60;99.90
19200;DHT22;9732;52.498;5.408;2023-09-18T10:31:47;21.70;99.90
19200;DHT22;9732;52.498;5.408;2023-09-18T10:34:16;21.60;99.90
19200;DHT22;9732;52.498;5.408;2023-09-18T10:36:46;21.60;99.90
19200;DHT22;9732;52.498;5.408;2023-09-18T10:39:15;21.60;99.90
19200;DHT22;9732;52.498;5.408;2023-09-18T10:41:48;21.50;99.90
19200;DHT22;9732;52.498;5.408;2023-09-18T10:44:17;21.70;99.90
19200;DHT22;9732;52.498;5.408;2023-09-18T10:46:48;22.00;99.90
19200;DHT22;9732;52.498;5.408;2023-09-18T10:49:17;22.20;99.90
19200;DHT22;9732;52.498;5.408;2023-09-18T10:51:46;22.60;99.90
19200;DHT22;9732;52.498;5.408;2023-09-18T10:54:16;22.70;99.90
19200;DHT22;9732;52.498;5.408;2023-09-18T10:56:43;22.60;99.90
19200;DHT22;9732;52.498;5.408;2023-09-18T10:59:11;22.60;99.90
19200;DHT22;9732;52.498;5.408;2023-09-18T11:01:38;22.50;99.90
19200;DHT22;9732;52.498;5.408;2023-09-18T11:04:07;22.30;99.90
19200;DHT22;9732;52.498;5.408;2023-09-18T11:07:04;22.30;99.90
19200;DHT22;9732;52.498;5.408;2023-09-18T11:09:40;22.30;99.90
19200;DHT22;9732;52.498;5.408;2023-09-18T11:12:08;22.30;99.90
19200;DHT22;9732;52.498;5.408;2023-09-18T11:14:44;22.40;99.90
19200;DHT22;9732;52.498;5.408;2023-09-18T11:17:31;22.40;99.90
19200;DHT22;9732;52.498;5.408;2023-09-18T11:20:03;22.40;99.90
19200;DHT22;9732;52.498;5.408;2023-09-18T11:22:33;22.40;99.90
19200;DHT22;9732;52.498;5.408;2023-09-18T11:25:28;22.40;99.90
19200;DHT22;9732;52.498;5.408;2023-09-18T11:27:56;22.50;99.90
19200;DHT22;9732;52.498;5.408;2023-09-18T11:30:23;22.60;99.90
19200;DHT22;9732;52.498;5.408;2023-09-18T11:32:51;22.70;99.90
19200;DHT22;9732;52.498;5.408;2023-09-18T11:35:21;22.80;99.90
19200;DHT22;9732;52.498;5.408;2023-09-18T11:38:04;22.90;99.90
19200;DHT22;9732;52.498;5.408;2023-09-18T11:40:34;22.70;99.90
19200;DHT22;9732;52.498;5.408;2023-09-18T11:43:24;22.70;99.90
19200;DHT22;9732;52.498;5.408;2023-09-18T11:45:57;22.80;99.90
19200;DHT22;9732;52.498;5.408;2023-09-18T11:48:25;22.60;99.90
19200;DHT22;9732;52.498;5.408;2023-09-18T11:50:55;22.60;99.90
19200;DHT22;9732;52.498;5.408;2023-09-18T11:53:27;22.50;99.90
19200;DHT22;9732;52.498;5.408;2023-09-18T11:55:54;22.30;99.90
19200;DHT22;9732;52.498;5.408;2023-09-18T11:58:21;22.30;99.90
19200;DHT22;9732;52.498;5.408;2023-09-18T12:00:49;22.50;99.90
19200;DHT22;9732;52.498;5.408;2023-09-18T12:03:17;22.60;99.90
19200;DHT22;9732;52.498;5.408;2023-09-18T12:05:55;22.50;99.90
19200;DHT22;9732;52.498;5.408;2023-09-18T12:08:25;22.30;99.90
19200;DHT22;9732;52.498;5.408;2023-09-18T12:10:54;22.50;99.90
19200;DHT22;9732;52.498;5.408;2023-09-18T12:13:21;22.60;99.90
19200;DHT22;9732;52.498;5.408;2023-09-18T12:15:49;22.50;99.90
19200;DHT22;9732;52.498;5.408;2023-09-18T12:18:17;22.60;99.90
19200;DHT22;9732;52.498;5.408;2023-09-18T12:20:47;22.70;99.90
19200;DHT22;9732;52.498;5.408;2023-09-18T12:23:15;22.70;99.90
19200;DHT22;9732;52.498;5.408;2023-09-18T12:25:45;23.10;99.90
19200;DHT22;9732;52.498;5.408;2023-09-18T12:28:13;23.20;99.90
19200;DHT22;9732;52.498;5.408;2023-09-18T12:30:42;23.10;99.90
19200;DHT22;9732;52.498;5.408;2023-09-18T12:33:08;23.00;99.90
19200;DHT22;9732;52.498;5.408;2023-09-18T12:35:36;23.00;99.90
19200;DHT22;9732;52.498;5.408;2023-09-18T12:38:13;23.20;99.90
19200;DHT22;9732;52.498;5.408;2023-09-18T12:40:40;23.10;99.90
19200;DHT22;9732;52.498;5.408;2023-09-18T12:43:11;23.20;99.90
19200;DHT22;9732;52.498;5.408;2023-09-18T12:45:40;23.20;99.90
19200;DHT22;9732;52.498;5.408;2023-09-18T12:48:08;23.00;99.90
19200;DHT22;9732;52.498;5.408;2023-09-18T12:50:35;22.80;99.90
19200;DHT22;9732;52.498;5.408;2023-09-18T12:53:09;22.40;99.90
19200;DHT22;9732;52.498;5.408;2023-09-18T12:55:36;22.20;99.90
19200;DHT22;9732;52.498;5.408;2023-09-18T12:58:04;22.10;99.90
19200;DHT22;9732;52.498;5.408;2023-09-18T13:00:35;22.40;99.90
19200;DHT22;9732;52.498;5.408;2023-09-18T13:03:03;22.40;99.90
19200;DHT22;9732;52.498;5.408;2023-09-18T13:05:30;22.30;99.90
19200;DHT22;9732;52.498;5.408;2023-09-18T13:08:02;22.10;99.90
19200;DHT22;9732;52.498;5.408;2023-09-18T13:10:42;22.00;99.90
19200;DHT22;9732;52.498;5.408;2023-09-18T13:13:16;21.90;99.90
19200;DHT22;9732;52.498;5.408;2023-09-18T13:15:44;21.90;99.90
19200;DHT22;9732;52.498;5.408;2023-09-18T13:18:14;22.10;99.90
19200;DHT22;9732;52.498;5.408;2023-09-18T13:20:42;22.30;99.90
19200;DHT22;9732;52.498;5.408;2023-09-18T13:23:09;22.50;99.90
19200;DHT22;9732;52.498;5.408;2023-09-18T13:25:40;22.50;99.90
19200;DHT22;9732;52.498;5.408;2023-09-18T13:28:12;22.60;99.90
19200;DHT22;9732;52.498;5.408;2023-09-18T13:30:41;22.70;99.90
19200;DHT22;9732;52.498;5.408;2023-09-18T13:33:10;22.90;99.90
19200;DHT22;9732;52.498;5.408;2023-09-18T13:35:40;23.00;99.90
19200;DHT22;9732;52.498;5.408;2023-09-18T13:38:07;23.10;99.90
19200;DHT22;9732;52.498;5.408;2023-09-18T13:40:34;23.10;99.90
19200;DHT22;9732;52.498;5.408;2023-09-18T13:43:03;23.00;99.90
19200;DHT22;9732;52.498;5.408;2023-09-18T13:45:30;22.70;99.90
19200;DHT22;9732;52.498;5.408;2023-09-18T13:47:57;22.50;99.90
19200;DHT22;9732;52.498;5.408;2023-09-18T13:50:26;22.40;99.90
19200;DHT22;9732;52.498;5.408;2023-09-18T13:52:53;22.40;99.90
19200;DHT22;9732;52.498;5.408;2023-09-18T13:55:21;22.40;99.90
19200;DHT22;9732;52.498;5.408;2023-09-18T13:57:49;22.50;99.90
19200;DHT22;9732;52.498;5.408;2023-09-18T14:00:16;22.60;99.90
19200;DHT22;9732;52.498;5.408;2023-09-18T14:02:43;22.70;99.90
19200;DHT22;9732;52.498;5.408;2023-09-18T14:05:11;22.80;99.90
19200;DHT22;9732;52.498;5.408;2023-09-18T14:07:40;22.90;99.90
19200;DHT22;9732;52.498;5.408;2023-09-18T14:10:09;22.90;99.90
19200;DHT22;9732;52.498;5.408;2023-09-18T14:12:37;23.00;99.90
19200;DHT22;9732;52.498;5.408;2023-09-18T14:15:05;23.10;99.90
19200;DHT22;9732;52.498;5.408;2023-09-18T14:17:34;23.30;99.90
19200;DHT22;9732;52.498;5.408;2023-09-18T14:20:07;23.50;99.90
19200;DHT22;9732;52.498;5.408;2023-09-18T14:22:36;23.40;99.90
19200;DHT22;9732;52.498;5.408;2023-09-18T14:25:08;23.30;99.90
19200;DHT22;9732;52.498;5.408;2023-09-18T14:27:37;23.10;99.90
19200;DHT22;9732;52.498;5.408;2023-09-18T14:30:06;22.80;99.90
19200;DHT22;9732;52.498;5.408;2023-09-18T14:32:34;22.70;99.90
19200;DHT22;9732;52.498;5.408;2023-09-18T14:35:02;22.70;99.90
19200;DHT22;9732;52.498;5.408;2023-09-18T14:37:30;22.60;99.90
19200;DHT22;9732;52.498;5.408;2023-09-18T14:39:58;22.50;99.90
19200;DHT22;9732;52.498;5.408;2023-09-18T14:42:26;22.30;99.90
19200;DHT22;9732;52.498;5.408;2023-09-18T14:44:53;22.20;99.90
19200;DHT22;9732;52.498;5.408;2023-09-18T14:47:21;22.10;99.90
19200;DHT22;9732;52.498;5.408;2023-09-18T14:49:49;22.10;99.90
19200;DHT22;9732;52.498;5.408;2023-09-18T14:52:17;22.10;99.90
19200;DHT22;9732;52.498;5.408;2023-09-18T14:54:45;22.00;99.90
19200;DHT22;9732;52.498;5.408;2023-09-18T14:57:14;21.90;99.90
19200;DHT22;9732;52.498;5.408;2023-09-18T14:59:43;21.80;99.90
19200;DHT22;9732;52.498;5.408;2023-09-18T15:02:13;21.70;99.90
19200;DHT22;9732;52.498;5.408;2023-09-18T15:04:41;21.90;99.90
19200;DHT22;9732;52.498;5.408;2023-09-18T15:07:08;21.70;99.90
19200;DHT22;9732;52.498;5.408;2023-09-18T15:09:36;21.60;99.90
19200;DHT22;9732;52.498;5.408;2023-09-18T15:12:03;21.60;99.90
19200;DHT22;9732;52.498;5.408;2023-09-18T15:14:33;21.50;99.90
19200;DHT22;9732;52.498;5.408;2023-09-18T15:17:02;21.40;99.90
19200;DHT22;9732;52.498;5.408;2023-09-18T15:19:29;21.30;99.90
19200;DHT22;9732;52.498;5.408;2023-09-18T15:21:58;21.10;99.90
19200;DHT22;9732;52.498;5.408;2023-09-18T15:24:27;21.00;99.90
19200;DHT22;9732;52.498;5.408;2023-09-18T15:26:54;20.80;99.90
19200;DHT22;9732;52.498;5.408;2023-09-18T15:29:22;20.70;99.90
19200;DHT22;9732;52.498;5.408;2023-09-18T15:31:49;20.70;99.90
19200;DHT22;9732;52.498;5.408;2023-09-18T15:34:17;20.60;99.90
19200;DHT22;9732;52.498;5.408;2023-09-18T15:36:44;20.50;99.90
19200;DHT22;9732;52.498;5.408;2023-09-18T15:39:11;20.30;99.90
19200;DHT22;9732;52.498;5.408;2023-09-18T15:41:38;20.20;99.90
19200;DHT22;9732;52.498;5.408;2023-09-18T15:44:05;19.70;99.90
19200;DHT22;9732;52.498;5.408;2023-09-18T15:46:35;19.40;99.90
19200;DHT22;9732;52.498;5.408;2023-09-18T15:49:04;19.00;99.90
19200;DHT22;9732;52.498;5.408;2023-09-18T15:51:32;18.80;99.90
19200;DHT22;9732;52.498;5.408;2023-09-18T15:53:59;18.60;99.90
19200;DHT22;9732;52.498;5.408;2023-09-18T15:56:27;18.60;99.90